sensor_id;sensor_type;location;lat;lon;timestamp;pressure;altitude;pressure_sealevel;temperature;humidity
2563;BME280;1291;51.420;6.970;2023-06-14T00:00:19;99857.72;;;48.23;5.68
2563;BME280;1291;51.420;6.970;2023-06-14T00:02:45;99841.28;;;50.25;4.80
2563;BME280;1291;51.420;6.970;2023-06-14T00:05:10;99848.16;;;50.48;4.85
2563;BME280;1291;51.420;6.970;2023-06-14T00:07:41;99846.09;;;48.81;5.54
2563;BME280;1291;51.420;6.970;2023-06-14T00:10:14;99846.13;;;50.30;4.96
2563;BME280;1291;51.420;6.970;2023-06-14T00:12:39;99849.22;;;49.25;5.15
2563;BME280;1291;51.420;6.970;2023-06-14T00:15:05;99852.28;;;50.00;5.22
2563;BME280;1291;51.420;6.970;2023-06-14T00:17:37;99853.38;;;49.93;4.91
2563;BME280;1291;51.420;6.970;2023-06-14T00:20:05;99856.69;;;50.08;5.20
2563;BME280;1291;51.420;6.970;2023-06-14T00:22:33;99858.63;;;48.84;5.65
2563;BME280;1291;51.420;6.970;2023-06-14T00:24:58;99862.97;;;49.90;5.35
2563;BME280;1291;51.420;6.970;2023-06-14T00:27:24;99862.22;;;49.70;5.41
2563;BME280;1291;51.420;6.970;2023-06-14T00:29:50;99869.88;;;50.06;5.02
2563;BME280;1291;51.420;6.970;2023-06-14T00:32:18;99867.78;;;50.33;5.01
2563;BME280;1291;51.420;6.970;2023-06-14T00:34:43;99872.41;;;48.70;5.58
2563;BME280;1291;51.420;6.970;2023-06-14T00:37:09;99871.47;;;49.23;5.36
2563;BME280;1291;51.420;6.970;2023-06-14T00:39:34;99874.69;;;49.14;5.72
2563;BME280;1291;51.420;6.970;2023-06-14T00:42:00;99861.84;;;50.36;4.95
2563;BME280;1291;51.420;6.970;2023-06-14T00:44:25;99878.97;;;49.75;5.26
2563;BME280;1291;51.420;6.970;2023-06-14T00:46:50;99876.47;;;50.05;5.13
2563;BME280;1291;51.420;6.970;2023-06-14T00:49:17;99876.81;;;50.79;4.76
2563;BME280;1291;51.420;6.970;2023-06-14T00:51:43;99878.50;;;48.93;5.64
2563;BME280;1291;51.420;6.970;2023-06-14T00:54:08;99886.34;;;49.16;5.50
2563;BME280;1291;51.420;6.970;2023-06-14T00:56:42;99880.59;;;49.89;5.40
2563;BME280;1291;51.420;6.970;2023-06-14T00:59:09;99881.53;;;48.78;5.66
2563;BME280;1291;51.420;6.970;2023-06-14T01:01:36;99884.78;;;48.00;6.15
2563;BME280;1291;51.420;6.970;2023-06-14T01:04:02;99884.06;;;47.84;6.10
2563;BME280;1291;51.420;6.970;2023-06-14T01:06:46;99888.53;;;47.85;5.75
2563;BME280;1291;51.420;6.970;2023-06-14T01:09:27;99890.66;;;47.83;6.05
2563;BME280;1291;51.420;6.970;2023-06-14T01:12:49;99883.06;;;47.99;5.95
2563;BME280;1291;51.420;6.970;2023-06-14T01:14:55;99894.16;;;48.25;5.92
2563;BME280;1291;51.420;6.970;2023-06-14T01:17:22;99887.19;;;48.29;5.97
2563;BME280;1291;51.420;6.970;2023-06-14T01:19:48;99893.56;;;48.63;5.99
2563;BME280;1291;51.420;6.970;2023-06-14T01:22:14;99895.81;;;48.26;5.82
2563;BME280;1291;51.420;6.970;2023-06-14T01:24:39;99890.59;;;48.98;5.70
2563;BME280;1291;51.420;6.970;2023-06-14T01:27:13;99889.50;;;49.39;5.35
2563;BME280;1291;51.420;6.970;2023-06-14T01:29:40;99883.41;;;48.84;5.39
2563;BME280;1291;51.420;6.970;2023-06-14T01:32:11;99887.19;;;48.49;5.62
2563;BME280;1291;51.420;6.970;2023-06-14T01:34:36;99888.94;;;47.82;5.98
2563;BME280;1291;51.420;6.970;2023-06-14T01:37:02;99882.75;;;48.88;5.63
2563;BME280;1291;51.420;6.970;2023-06-14T01:39:28;99887.31;;;49.55;5.18
2563;BME280;1291;51.420;6.970;2023-06-14T01:41:53;99875.78;;;49.71;5.53
2563;BME280;1291;51.420;6.970;2023-06-14T01:44:19;99887.19;;;49.23;5.86
2563;BME280;1291;51.420;6.970;2023-06-14T01:46:45;99877.75;;;49.57;5.38
2563;BME280;1291;51.420;6.970;2023-06-14T01:49:11;99884.34;;;49.50;5.46
2563;BME280;1291;51.420;6.970;2023-06-14T01:51:36;99882.91;;;49.92;5.17
2563;BME280;1291;51.420;6.970;2023-06-14T01:54:01;99880.56;;;49.96;5.52
2563;BME280;1291;51.420;6.970;2023-06-14T01:56:27;99884.31;;;49.63;5.53
2563;BME280;1291;51.420;6.970;2023-06-14T01:58:52;99889.53;;;48.33;5.91
2563;BME280;1291;51.420;6.970;2023-06-14T02:01:19;99877.94;;;49.62;5.50
2563;BME280;1291;51.420;6.970;2023-06-14T02:03:46;99877.44;;;49.85;5.56
2563;BME280;1291;51.420;6.970;2023-06-14T02:06:12;99888.69;;;47.77;6.19
2563;BME280;1291;51.420;6.970;2023-06-14T02:08:37;99889.56;;;47.08;6.50
2563;BME280;1291;51.420;6.970;2023-06-14T02:11:02;99886.16;;;47.76;6.26
2563;BME280;1291;51.420;6.970;2023-06-14T02:13:28;99890.13;;;48.21;5.99
2563;BME280;1291;51.420;6.970;2023-06-14T02:15:53;99879.34;;;49.26;5.44
2563;BME280;1291;51.420;6.970;2023-06-14T02:18:20;99892.88;;;47.25;6.46
2563;BME280;1291;51.420;6.970;2023-06-14T02:20:46;99894.88;;;48.74;5.81
2563;BME280;1291;51.420;6.970;2023-06-14T02:23:12;99887.97;;;46.92;6.62
2563;BME280;1291;51.420;6.970;2023-06-14T02:25:37;99888.66;;;47.29;6.13
2563;BME280;1291;51.420;6.970;2023-06-14T02:28:04;99891.22;;;48.54;5.63
2563;BME280;1291;51.420;6.970;2023-06-14T02:30:30;99883.50;;;46.91;6.60
2563;BME280;1291;51.420;6.970;2023-06-14T02:32:56;99885.03;;;46.93;6.25
2563;BME280;1291;51.420;6.970;2023-06-14T02:35:21;99891.75;;;47.54;6.25
2563;BME280;1291;51.420;6.970;2023-06-14T02:37:49;99887.00;;;48.91;5.70
2563;BME280;1291;51.420;6.970;2023-06-14T02:40:16;99892.69;;;47.05;6.57
2563;BME280;1291;51.420;6.970;2023-06-14T02:42:41;99892.91;;;48.41;5.58
2563;BME280;1291;51.420;6.970;2023-06-14T02:45:07;99896.13;;;47.42;6.40
2563;BME280;1291;51.420;6.970;2023-06-14T02:47:39;99901.00;;;48.56;5.61
2563;BME280;1291;51.420;6.970;2023-06-14T02:50:08;99904.78;;;48.55;5.80
2563;BME280;1291;51.420;6.970;2023-06-14T02:52:33;99906.16;;;48.04;5.97
2563;BME280;1291;51.420;6.970;2023-06-14T02:54:59;99910.34;;;48.68;5.66
2563;BME280;1291;51.420;6.970;2023-06-14T02:57:24;99905.25;;;49.05;5.59
2563;BME280;1291;51.420;6.970;2023-06-14T02:59:50;99913.06;;;47.87;6.10
2563;BME280;1291;51.420;6.970;2023-06-14T03:02:15;99908.19;;;48.37;6.25
2563;BME280;1291;51.420;6.970;2023-06-14T03:04:44;99912.88;;;48.90;5.69
2563;BME280;1291;51.420;6.970;2023-06-14T03:07:11;99917.47;;;47.68;6.31
2563;BME280;1291;51.420;6.970;2023-06-14T03:09:38;99925.25;;;48.12;5.80
2563;BME280;1291;51.420;6.970;2023-06-14T03:12:04;99919.34;;;48.22;5.84
2563;BME280;1291;51.420;6.970;2023-06-14T03:14:31;99924.50;;;48.59;5.76
2563;BME280;1291;51.420;6.970;2023-06-14T03:16:57;99922.41;;;47.44;6.27
2563;BME280;1291;51.420;6.970;2023-06-14T03:19:23;99917.47;;;47.33;6.50
2563;BME280;1291;51.420;6.970;2023-06-14T03:21:48;99927.72;;;47.52;6.29
2563;BME280;1291;51.420;6.970;2023-06-14T03:24:14;99933.41;;;47.86;6.13
2563;BME280;1291;51.420;6.970;2023-06-14T03:26:41;99930.31;;;47.61;6.36
2563;BME280;1291;51.420;6.970;2023-06-14T03:29:06;99932.91;;;48.17;6.12
2563;BME280;1291;51.420;6.970;2023-06-14T03:31:56;99935.09;;;45.94;6.98
2563;BME280;1291;51.420;6.970;2023-06-14T03:34:23;99932.47;;;46.59;6.84
2563;BME280;1291;51.420;6.970;2023-06-14T03:36:48;99932.09;;;47.40;6.36
2563;BME280;1291;51.420;6.970;2023-06-14T03:39:14;99944.22;;;46.31;6.98
2563;BME280;1291;51.420;6.970;2023-06-14T03:41:42;99941.84;;;46.28;7.06
2563;BME280;1291;51.420;6.970;2023-06-14T03:44:08;99946.16;;;47.24;6.41
2563;BME280;1291;51.420;6.970;2023-06-14T03:46:33;99940.22;;;47.97;6.29
2563;BME280;1291;51.420;6.970;2023-06-14T03:48:58;99946.47;;;47.14;6.51
2563;BME280;1291;51.420;6.970;2023-06-14T03:51:24;99952.25;;;48.37;6.06
2563;BME280;1291;51.420;6.970;2023-06-14T03:53:50;99954.41;;;48.62;5.65
2563;BME280;1291;51.420;6.970;2023-06-14T03:56:15;99967.34;;;46.59;6.60
2563;BME280;1291;51.420;6.970;2023-06-14T03:58:41;99970.41;;;44.46;8.09
2563;BME280;1291;51.420;6.970;2023-06-14T04:01:09;99958.84;;;46.02;7.07
2563;BME280;1291;51.420;6.970;2023-06-14T04:03:37;99967.47;;;45.84;6.90
2563;BME280;1291;51.420;6.970;2023-06-14T04:06:04;99971.41;;;47.62;6.24
2563;BME280;1291;51.420;6.970;2023-06-14T04:08:30;99972.47;;;47.40;6.43
2563;BME280;1291;51.420;6.970;2023-06-14T04:10:56;99979.56;;;47.21;6.37
2563;BME280;1291;51.420;6.970;2023-06-14T04:13:21;99973.59;;;47.17;6.33
2563;BME280;1291;51.420;6.970;2023-06-14T04:15:46;99976.44;;;47.94;6.08
2563;BME280;1291;51.420;6.970;2023-06-14T04:18:12;99983.44;;;48.03;6.09
2563;BME280;1291;51.420;6.970;2023-06-14T04:20:38;99982.53;;;47.26;6.27
2563;BME280;1291;51.420;6.970;2023-06-14T04:23:12;99986.44;;;47.38;6.53
2563;BME280;1291;51.420;6.970;2023-06-14T04:25:38;99990.69;;;48.10;5.92
2563;BME280;1291;51.420;6.970;2023-06-14T04:28:03;99984.31;;;47.12;6.69
2563;BME280;1291;51.420;6.970;2023-06-14T04:30:29;99989.53;;;45.23;7.34
2563;BME280;1291;51.420;6.970;2023-06-14T04:32:56;99987.59;;;47.85;6.33
2563;BME280;1291;51.420;6.970;2023-06-14T04:35:22;99994.78;;;46.22;7.27
2563;BME280;1291;51.420;6.970;2023-06-14T04:37:49;99995.91;;;46.64;6.89
2563;BME280;1291;51.420;6.970;2023-06-14T04:40:14;99996.06;;;46.99;6.68
2563;BME280;1291;51.420;6.970;2023-06-14T04:42:40;99997.63;;;48.61;6.10
2563;BME280;1291;51.420;6.970;2023-06-14T04:45:06;100003.66;;;47.19;6.47
2563;BME280;1291;51.420;6.970;2023-06-14T04:47:32;100000.50;;;47.22;6.57
2563;BME280;1291;51.420;6.970;2023-06-14T04:49:59;100004.50;;;47.19;6.59
2563;BME280;1291;51.420;6.970;2023-06-14T04:52:25;100014.31;;;47.91;6.06
2563;BME280;1291;51.420;6.970;2023-06-14T04:54:52;100012.09;;;46.95;6.69
2563;BME280;1291;51.420;6.970;2023-06-14T04:57:19;100010.25;;;47.52;6.27
2563;BME280;1291;51.420;6.970;2023-06-14T04:59:47;100013.03;;;46.30;7.08
2563;BME280;1291;51.420;6.970;2023-06-14T05:02:12;100011.19;;;47.17;6.36
2563;BME280;1291;51.420;6.970;2023-06-14T05:04:38;100012.63;;;47.34;6.30
2563;BME280;1291;51.420;6.970;2023-06-14T05:07:12;100019.84;;;46.34;7.31
2563;BME280;1291;51.420;6.970;2023-06-14T05:09:39;100009.72;;;46.92;6.44
2563;BME280;1291;51.420;6.970;2023-06-14T05:12:05;100015.06;;;48.75;5.76
2563;BME280;1291;51.420;6.970;2023-06-14T05:14:33;100011.06;;;49.04;5.71
2563;BME280;1291;51.420;6.970;2023-06-14T05:16:58;100013.13;;;47.72;6.48
2563;BME280;1291;51.420;6.970;2023-06-14T05:19:24;100018.84;;;48.67;6.02
2563;BME280;1291;51.420;6.970;2023-06-14T05:21:50;100018.81;;;46.93;6.59
2563;BME280;1291;51.420;6.970;2023-06-14T05:24:15;100024.91;;;47.60;6.39
2563;BME280;1291;51.420;6.970;2023-06-14T05:26:46;100021.22;;;48.22;6.18
2563;BME280;1291;51.420;6.970;2023-06-14T05:29:12;100020.63;;;47.85;6.63
2563;BME280;1291;51.420;6.970;2023-06-14T05:31:37;100036.97;;;45.24;7.19
2563;BME280;1291;51.420;6.970;2023-06-14T05:34:03;100020.97;;;48.10;6.12
2563;BME280;1291;51.420;6.970;2023-06-14T05:36:28;100027.28;;;48.59;5.78
2563;BME280;1291;51.420;6.970;2023-06-14T05:38:54;100025.25;;;48.68;5.96
2563;BME280;1291;51.420;6.970;2023-06-14T05:41:29;100027.63;;;49.18;5.35
2563;BME280;1291;51.420;6.970;2023-06-14T05:43:55;100022.50;;;49.68;5.22
2563;BME280;1291;51.420;6.970;2023-06-14T05:46:22;100032.06;;;49.45;5.57
2563;BME280;1291;51.420;6.970;2023-06-14T05:48:50;100037.16;;;49.02;5.73
2563;BME280;1291;51.420;6.970;2023-06-14T05:51:15;100034.72;;;48.52;6.14
2563;BME280;1291;51.420;6.970;2023-06-14T05:53:50;100032.94;;;49.19;5.98
2563;BME280;1291;51.420;6.970;2023-06-14T05:56:16;100044.59;;;46.19;6.73
2563;BME280;1291;51.420;6.970;2023-06-14T05:58:46;100050.50;;;45.63;6.87
2563;BME280;1291;51.420;6.970;2023-06-14T06:01:11;100042.13;;;47.40;6.55
2563;BME280;1291;51.420;6.970;2023-06-14T06:03:38;100042.19;;;47.82;6.25
2563;BME280;1291;51.420;6.970;2023-06-14T06:06:03;100041.88;;;47.42;6.31
2563;BME280;1291;51.420;6.970;2023-06-14T06:08:29;100050.72;;;47.30;6.70
2563;BME280;1291;51.420;6.970;2023-06-14T06:10:55;100048.25;;;48.47;5.82
2563;BME280;1291;51.420;6.970;2023-06-14T06:13:23;100050.72;;;49.30;5.93
2563;BME280;1291;51.420;6.970;2023-06-14T06:15:48;100058.97;;;48.90;5.84
2563;BME280;1291;51.420;6.970;2023-06-14T06:18:14;100056.06;;;49.25;5.86
2563;BME280;1291;51.420;6.970;2023-06-14T06:20:39;100048.25;;;50.20;5.45
2563;BME280;1291;51.420;6.970;2023-06-14T06:23:05;100057.44;;;50.01;5.64
2563;BME280;1291;51.420;6.970;2023-06-14T06:25:30;100057.81;;;47.75;6.28
2563;BME280;1291;51.420;6.970;2023-06-14T06:27:57;100053.75;;;47.42;6.58
2563;BME280;1291;51.420;6.970;2023-06-14T06:30:23;100068.72;;;45.18;7.76
2563;BME280;1291;51.420;6.970;2023-06-14T06:32:48;100061.06;;;48.26;5.88
2563;BME280;1291;51.420;6.970;2023-06-14T06:35:14;100067.66;;;48.74;5.70
2563;BME280;1291;51.420;6.970;2023-06-14T06:37:41;100068.81;;;48.58;5.91
2563;BME280;1291;51.420;6.970;2023-06-14T06:40:07;100066.41;;;48.96;5.64
2563;BME280;1291;51.420;6.970;2023-06-14T06:42:33;100077.94;;;47.53;6.55
2563;BME280;1291;51.420;6.970;2023-06-14T06:44:58;100079.16;;;47.66;6.11
2563;BME280;1291;51.420;6.970;2023-06-14T06:47:23;100078.78;;;48.10;6.03
2563;BME280;1291;51.420;6.970;2023-06-14T06:49:50;100085.31;;;49.13;5.68
2563;BME280;1291;51.420;6.970;2023-06-14T06:52:15;100084.34;;;51.09;5.30
2563;BME280;1291;51.420;6.970;2023-06-14T06:54:40;100088.06;;;50.96;5.22
2563;BME280;1291;51.420;6.970;2023-06-14T06:57:06;100084.31;;;51.66;4.63
2563;BME280;1291;51.420;6.970;2023-06-14T06:59:31;100101.22;;;49.37;5.38
2563;BME280;1291;51.420;6.970;2023-06-14T07:01:57;100093.31;;;50.14;4.98
2563;BME280;1291;51.420;6.970;2023-06-14T07:04:22;100095.78;;;50.36;4.96
2563;BME280;1291;51.420;6.970;2023-06-14T07:06:48;100101.53;;;51.93;4.45
2563;BME280;1291;51.420;6.970;2023-06-14T07:09:13;100104.00;;;48.56;5.73
2563;BME280;1291;51.420;6.970;2023-06-14T07:11:40;100089.06;;;51.59;4.33
2563;BME280;1291;51.420;6.970;2023-06-14T07:14:06;100105.38;;;47.97;6.03
2563;BME280;1291;51.420;6.970;2023-06-14T07:16:32;100097.22;;;49.33;5.11
2563;BME280;1291;51.420;6.970;2023-06-14T07:18:57;100107.63;;;48.56;5.55
2563;BME280;1291;51.420;6.970;2023-06-14T07:21:22;100103.59;;;49.54;5.04
2563;BME280;1291;51.420;6.970;2023-06-14T07:23:48;100102.16;;;48.69;5.42
2563;BME280;1291;51.420;6.970;2023-06-14T07:26:13;100106.22;;;48.74;5.57
2563;BME280;1291;51.420;6.970;2023-06-14T07:28:38;100106.88;;;47.71;6.09
2563;BME280;1291;51.420;6.970;2023-06-14T07:31:04;100106.59;;;47.87;5.85
2563;BME280;1291;51.420;6.970;2023-06-14T07:33:35;100100.00;;;50.52;5.10
2563;BME280;1291;51.420;6.970;2023-06-14T07:36:00;100099.88;;;51.17;4.44
2563;BME280;1291;51.420;6.970;2023-06-14T07:38:26;100099.56;;;51.25;4.38
2563;BME280;1291;51.420;6.970;2023-06-14T07:40:51;100092.72;;;50.57;4.65
2563;BME280;1291;51.420;6.970;2023-06-14T07:43:17;100109.13;;;48.65;5.85
2563;BME280;1291;51.420;6.970;2023-06-14T07:45:42;100103.81;;;49.85;5.06
2563;BME280;1291;51.420;6.970;2023-06-14T07:48:08;100104.09;;;50.81;5.04
2563;BME280;1291;51.420;6.970;2023-06-14T07:50:34;100095.22;;;51.04;4.51
2563;BME280;1291;51.420;6.970;2023-06-14T07:52:59;100103.47;;;50.27;5.19
2563;BME280;1291;51.420;6.970;2023-06-14T07:55:24;100104.56;;;48.93;5.30
2563;BME280;1291;51.420;6.970;2023-06-14T07:57:50;100104.84;;;48.15;5.70
2563;BME280;1291;51.420;6.970;2023-06-14T08:00:16;100104.19;;;49.96;5.33
2563;BME280;1291;51.420;6.970;2023-06-14T08:02:43;100101.78;;;50.33;4.82
2563;BME280;1291;51.420;6.970;2023-06-14T08:05:10;100107.91;;;50.48;4.82
2563;BME280;1291;51.420;6.970;2023-06-14T08:07:36;100108.78;;;48.82;5.61
2563;BME280;1291;51.420;6.970;2023-06-14T08:10:02;100114.94;;;48.01;5.90
2563;BME280;1291;51.420;6.970;2023-06-14T08:12:27;100115.03;;;49.17;5.29
2563;BME280;1291;51.420;6.970;2023-06-14T08:14:52;100115.06;;;48.21;6.06
2563;BME280;1291;51.420;6.970;2023-06-14T08:17:18;100112.03;;;49.05;5.46
2563;BME280;1291;51.420;6.970;2023-06-14T08:19:43;100114.75;;;48.85;5.47
2563;BME280;1291;51.420;6.970;2023-06-14T08:22:08;100109.34;;;49.39;5.33
2563;BME280;1291;51.420;6.970;2023-06-14T08:24:36;100113.63;;;50.92;5.03
2563;BME280;1291;51.420;6.970;2023-06-14T08:27:02;100109.88;;;50.14;5.31
2563;BME280;1291;51.420;6.970;2023-06-14T08:29:27;100113.94;;;50.12;5.32
2563;BME280;1291;51.420;6.970;2023-06-14T08:31:54;100113.03;;;51.72;4.96
2563;BME280;1291;51.420;6.970;2023-06-14T08:34:20;100127.53;;;50.13;5.41
2563;BME280;1291;51.420;6.970;2023-06-14T08:36:48;100120.31;;;49.05;5.55
2563;BME280;1291;51.420;6.970;2023-06-14T08:39:13;100119.91;;;49.89;5.16
2563;BME280;1291;51.420;6.970;2023-06-14T08:41:44;100116.13;;;50.55;4.71
2563;BME280;1291;51.420;6.970;2023-06-14T08:44:11;100124.91;;;50.32;4.75
2563;BME280;1291;51.420;6.970;2023-06-14T08:46:36;100130.31;;;48.23;5.83
2563;BME280;1291;51.420;6.970;2023-06-14T08:49:02;100124.16;;;50.11;5.20
2563;BME280;1291;51.420;6.970;2023-06-14T08:51:31;100116.94;;;49.30;5.82
2563;BME280;1291;51.420;6.970;2023-06-14T08:53:59;100115.88;;;51.33;4.95
2563;BME280;1291;51.420;6.970;2023-06-14T08:56:30;100126.03;;;47.36;6.10
2563;BME280;1291;51.420;6.970;2023-06-14T08:58:57;100113.97;;;49.25;5.48
2563;BME280;1291;51.420;6.970;2023-06-14T09:01:26;100122.13;;;48.85;5.66
2563;BME280;1291;51.420;6.970;2023-06-14T09:03:54;100130.28;;;47.88;5.89
2563;BME280;1291;51.420;6.970;2023-06-14T09:06:20;100113.13;;;50.63;4.50
2563;BME280;1291;51.420;6.970;2023-06-14T09:08:48;100118.84;;;49.36;4.94
2563;BME280;1291;51.420;6.970;2023-06-14T09:11:15;100114.34;;;50.22;5.14
2563;BME280;1291;51.420;6.970;2023-06-14T09:13:45;100124.66;;;50.53;5.17
2563;BME280;1291;51.420;6.970;2023-06-14T09:16:11;100118.78;;;50.75;4.62
2563;BME280;1291;51.420;6.970;2023-06-14T09:18:37;100119.91;;;51.88;3.85
2563;BME280;1291;51.420;6.970;2023-06-14T09:21:06;100115.16;;;50.22;4.86
2563;BME280;1291;51.420;6.970;2023-06-14T09:23:39;100115.66;;;50.64;4.46
2563;BME280;1291;51.420;6.970;2023-06-14T09:26:13;100125.06;;;49.38;5.08
2563;BME280;1291;51.420;6.970;2023-06-14T09:28:43;100124.97;;;49.12;4.81
2563;BME280;1291;51.420;6.970;2023-06-14T09:31:10;100113.13;;;49.31;5.09
2563;BME280;1291;51.420;6.970;2023-06-14T09:33:36;100120.84;;;48.74;5.17
2563;BME280;1291;51.420;6.970;2023-06-14T09:36:02;100112.53;;;48.26;5.58
2563;BME280;1291;51.420;6.970;2023-06-14T09:38:27;100121.84;;;50.98;4.49
2563;BME280;1291;51.420;6.970;2023-06-14T09:40:56;100131.28;;;48.85;5.42
2563;BME280;1291;51.420;6.970;2023-06-14T09:43:21;100123.94;;;47.38;6.07
2563;BME280;1291;51.420;6.970;2023-06-14T09:45:51;100125.78;;;50.25;4.49
2563;BME280;1291;51.420;6.970;2023-06-14T09:48:16;100120.00;;;52.55;3.86
2563;BME280;1291;51.420;6.970;2023-06-14T09:50:46;100122.69;;;50.99;4.70
2563;BME280;1291;51.420;6.970;2023-06-14T09:53:14;100129.56;;;48.91;5.08
2563;BME280;1291;51.420;6.970;2023-06-14T09:55:41;100133.50;;;49.63;5.23
2563;BME280;1291;51.420;6.970;2023-06-14T09:58:10;100122.63;;;50.22;4.80
2563;BME280;1291;51.420;6.970;2023-06-14T10:00:38;100135.78;;;50.78;4.37
2563;BME280;1291;51.420;6.970;2023-06-14T10:05:39;100128.28;;;51.56;4.11
2563;BME280;1291;51.420;6.970;2023-06-14T10:08:13;100135.59;;;52.86;4.07
2563;BME280;1291;51.420;6.970;2023-06-14T10:10:41;100138.66;;;48.78;5.06
2563;BME280;1291;51.420;6.970;2023-06-14T10:13:07;100131.47;;;50.96;4.27
2563;BME280;1291;51.420;6.970;2023-06-14T10:15:41;100121.03;;;53.03;3.73
2563;BME280;1291;51.420;6.970;2023-06-14T10:21:16;100143.19;;;48.51;5.17
2563;BME280;1291;51.420;6.970;2023-06-14T10:23:44;100134.34;;;49.37;4.91
2563;BME280;1291;51.420;6.970;2023-06-14T10:26:18;100128.38;;;51.42;4.23
2563;BME280;1291;51.420;6.970;2023-06-14T10:29:07;100136.75;;;48.79;5.23
2563;BME280;1291;51.420;6.970;2023-06-14T10:31:46;100134.75;;;50.21;4.40
2563;BME280;1291;51.420;6.970;2023-06-14T10:34:20;100120.47;;;51.21;4.30
2563;BME280;1291;51.420;6.970;2023-06-14T10:37:20;100125.41;;;50.67;4.31
2563;BME280;1291;51.420;6.970;2023-06-14T10:39:45;100117.34;;;49.14;5.00
2563;BME280;1291;51.420;6.970;2023-06-14T10:42:11;100119.06;;;50.01;4.97
2563;BME280;1291;51.420;6.970;2023-06-14T10:47:06;100122.59;;;48.95;5.06
2563;BME280;1291;51.420;6.970;2023-06-14T10:49:45;100115.47;;;49.21;5.38
2563;BME280;1291;51.420;6.970;2023-06-14T10:52:19;100122.03;;;49.20;5.39
2563;BME280;1291;51.420;6.970;2023-06-14T10:57:34;100119.91;;;49.22;5.60
2563;BME280;1291;51.420;6.970;2023-06-14T11:00:01;100127.09;;;49.09;5.21
2563;BME280;1291;51.420;6.970;2023-06-14T11:10:47;100129.28;;;49.54;5.13
2563;BME280;1291;51.420;6.970;2023-06-14T11:13:13;100134.94;;;48.16;6.02
2563;BME280;1291;51.420;6.970;2023-06-14T11:15:44;100125.59;;;51.42;4.77
2563;BME280;1291;51.420;6.970;2023-06-14T11:18:11;100117.94;;;51.13;4.88
2563;BME280;1291;51.420;6.970;2023-06-14T11:20:37;100113.78;;;51.79;4.39
2563;BME280;1291;51.420;6.970;2023-06-14T11:23:03;100123.34;;;49.64;5.37
2563;BME280;1291;51.420;6.970;2023-06-14T11:25:29;100115.38;;;52.12;4.61
2563;BME280;1291;51.420;6.970;2023-06-14T11:27:54;100119.56;;;51.27;4.73
2563;BME280;1291;51.420;6.970;2023-06-14T11:30:24;100127.31;;;51.69;4.52
2563;BME280;1291;51.420;6.970;2023-06-14T11:32:52;100121.41;;;53.96;3.64
2563;BME280;1291;51.420;6.970;2023-06-14T11:35:19;100128.28;;;48.74;5.74
2563;BME280;1291;51.420;6.970;2023-06-14T11:37:46;100122.34;;;52.14;4.57
2563;BME280;1291;51.420;6.970;2023-06-14T11:40:15;100127.69;;;48.92;5.26
2563;BME280;1291;51.420;6.970;2023-06-14T11:42:41;100118.97;;;50.35;5.05
2563;BME280;1291;51.420;6.970;2023-06-14T11:45:11;100112.94;;;52.89;4.13
2563;BME280;1291;51.420;6.970;2023-06-14T11:47:38;100107.25;;;50.39;4.87
2563;BME280;1291;51.420;6.970;2023-06-14T11:50:08;100111.34;;;53.47;4.07
2563;BME280;1291;51.420;6.970;2023-06-14T11:52:36;100120.66;;;52.69;4.11
2563;BME280;1291;51.420;6.970;2023-06-14T11:55:02;100113.75;;;51.86;4.56
2563;BME280;1291;51.420;6.970;2023-06-14T11:57:30;100127.00;;;52.57;4.16
2563;BME280;1291;51.420;6.970;2023-06-14T11:59:55;100124.78;;;50.72;5.02
2563;BME280;1291;51.420;6.970;2023-06-14T12:02:21;100119.31;;;50.52;5.44
2563;BME280;1291;51.420;6.970;2023-06-14T12:04:47;100120.97;;;48.53;6.10
2563;BME280;1291;51.420;6.970;2023-06-14T12:07:17;100117.56;;;49.92;5.36
2563;BME280;1291;51.420;6.970;2023-06-14T12:12:22;100113.66;;;48.31;5.72
2563;BME280;1291;51.420;6.970;2023-06-14T12:14:49;100114.03;;;50.43;5.11
2563;BME280;1291;51.420;6.970;2023-06-14T12:17:16;100105.78;;;50.37;5.16
2563;BME280;1291;51.420;6.970;2023-06-14T12:19:43;100115.00;;;50.69;4.93
2563;BME280;1291;51.420;6.970;2023-06-14T12:22:10;100104.50;;;52.10;4.50
2563;BME280;1291;51.420;6.970;2023-06-14T12:24:35;100096.19;;;53.97;4.24
2563;BME280;1291;51.420;6.970;2023-06-14T12:27:01;100114.97;;;50.76;5.28
2563;BME280;1291;51.420;6.970;2023-06-14T12:29:29;100107.63;;;52.88;4.14
2563;BME280;1291;51.420;6.970;2023-06-14T12:31:54;100106.16;;;51.24;5.06
2563;BME280;1291;51.420;6.970;2023-06-14T12:34:23;100107.28;;;48.73;6.03
2563;BME280;1291;51.420;6.970;2023-06-14T12:36:50;100107.47;;;51.47;4.76
2563;BME280;1291;51.420;6.970;2023-06-14T12:39:15;100108.59;;;52.63;3.96
2563;BME280;1291;51.420;6.970;2023-06-14T12:41:44;100101.00;;;51.34;4.53
2563;BME280;1291;51.420;6.970;2023-06-14T12:44:10;100097.59;;;50.10;5.27
2563;BME280;1291;51.420;6.970;2023-06-14T12:46:36;100106.22;;;52.30;4.51
2563;BME280;1291;51.420;6.970;2023-06-14T12:49:02;100111.22;;;51.84;4.66
2563;BME280;1291;51.420;6.970;2023-06-14T12:51:27;100108.84;;;50.15;4.97
2563;BME280;1291;51.420;6.970;2023-06-14T12:53:52;100103.44;;;50.40;5.66
2563;BME280;1291;51.420;6.970;2023-06-14T12:56:18;100111.00;;;49.40;5.25
2563;BME280;1291;51.420;6.970;2023-06-14T12:58:43;100104.03;;;50.94;5.08
2563;BME280;1291;51.420;6.970;2023-06-14T13:01:12;100111.69;;;51.99;4.08
2563;BME280;1291;51.420;6.970;2023-06-14T13:03:37;100105.00;;;51.07;4.67
2563;BME280;1291;51.420;6.970;2023-06-14T13:06:02;100105.63;;;52.28;4.15
2563;BME280;1291;51.420;6.970;2023-06-14T13:08:29;100111.88;;;52.72;4.10
2563;BME280;1291;51.420;6.970;2023-06-14T13:10:55;100104.56;;;52.29;4.55
2563;BME280;1291;51.420;6.970;2023-06-14T13:13:24;100112.13;;;52.52;4.00
2563;BME280;1291;51.420;6.970;2023-06-14T13:15:50;100115.38;;;52.30;4.01
2563;BME280;1291;51.420;6.970;2023-06-14T13:18:15;100104.88;;;54.99;4.09
2563;BME280;1291;51.420;6.970;2023-06-14T13:20:41;100111.09;;;51.47;4.62
2563;BME280;1291;51.420;6.970;2023-06-14T13:23:07;100105.22;;;52.91;4.07
2563;BME280;1291;51.420;6.970;2023-06-14T13:25:37;100107.91;;;53.75;3.64
2563;BME280;1291;51.420;6.970;2023-06-14T13:28:04;100100.50;;;53.46;3.91
2563;BME280;1291;51.420;6.970;2023-06-14T13:30:29;100104.94;;;52.32;4.45
2563;BME280;1291;51.420;6.970;2023-06-14T13:32:55;100105.78;;;52.82;4.47
2563;BME280;1291;51.420;6.970;2023-06-14T13:35:21;100110.78;;;52.24;4.30
2563;BME280;1291;51.420;6.970;2023-06-14T13:37:47;100107.06;;;54.39;3.30
2563;BME280;1291;51.420;6.970;2023-06-14T13:40:12;100107.03;;;51.50;4.57
2563;BME280;1291;51.420;6.970;2023-06-14T13:42:38;100112.59;;;50.86;4.68
2563;BME280;1291;51.420;6.970;2023-06-14T13:45:04;100114.41;;;52.73;4.16